Time;durP1;ratioP1;P1;durP2;ratioP2;P2;SDS_P1;SDS_P2;PMS_P1;PMS_P2;Temp;Humidity;BMP_temperature;BMP_pressure;BME280_temperature;BME280_humidity;BME280_pressure;Samples;Min_cycle;Max_cycle;Signal;HPM_P1;HPM_P2
2023/02/07 00:02:18;;;;;;;19.37;7.57;;;;;;;-2.06;65.06;102213.02;125080;1099;104130;-80
2023/02/07 00:04:51;;;;;;;21.85;8.20;;;;;;;-2.08;65.21;102219.66;125170;1098;102022;-80
2023/02/07 00:07:23;;;;;;;18.87;7.87;;;;;;;-2.08;64.59;102212.84;125110;1099;101807;-79
2023/02/07 00:09:56;;;;;;;19.97;7.73;;;;;;;-2.07;64.75;102213.75;125062;1098;104030;-80
2023/02/07 00:12:28;;;;;;;19.95;7.92;;;;;;;-2.08;65.12;102219.66;125080;1099;103942;-80
2023/02/07 00:15:01;;;;;;;19.40;7.60;;;;;;;-2.10;65.59;102221.13;125225;1098;101619;-81
2023/02/07 00:17:33;;;;;;;19.07;8.30;;;;;;;-2.10;64.72;102222.06;125028;1099;103967;-79
2023/02/07 00:20:07;;;;;;;17.80;7.77;;;;;;;-2.09;64.47;102213.58;125086;1099;102174;-79
2023/02/07 00:22:39;;;;;;;17.10;7.10;;;;;;;-2.09;65.26;102221.30;125020;1099;103952;-81
2023/02/07 00:25:11;;;;;;;17.13;7.13;;;;;;;-2.10;65.66;102216.91;125092;1099;101887;-80
2023/02/07 00:27:44;;;;;;;18.27;7.50;;;;;;;-2.11;64.06;102211.59;125032;1099;101656;-79
2023/02/07 00:30:16;;;;;;;16.97;7.27;;;;;;;-2.11;64.81;102214.16;125104;1099;104060;-79
2023/02/07 00:32:49;;;;;;;17.92;7.45;;;;;;;-2.11;64.64;102204.78;124978;1099;102050;-81
2023/02/07 00:35:22;;;;;;;17.00;6.83;;;;;;;-2.13;64.66;102201.13;125119;1099;103941;-80
2023/02/07 00:37:54;;;;;;;17.43;7.33;;;;;;;-2.14;65.00;102207.00;125120;1099;101773;-80
2023/02/07 00:40:26;;;;;;;15.53;7.10;;;;;;;-2.17;64.58;102207.59;125276;1099;104031;-78
2023/02/07 00:42:58;;;;;;;16.93;6.83;;;;;;;-2.18;64.96;102202.28;125110;1099;102037;-81
2023/02/07 00:45:31;;;;;;;18.77;7.53;;;;;;;-2.19;64.43;102196.19;124978;1099;103970;-78
2023/02/07 00:48:03;;;;;;;15.10;6.30;;;;;;;-2.18;65.15;102199.70;125095;1099;101766;-81
2023/02/07 00:50:35;;;;;;;17.83;7.13;;;;;;;-2.20;64.20;102189.24;125049;1099;104002;-79
2023/02/07 00:53:07;;;;;;;17.50;7.20;;;;;;;-2.20;64.47;102193.45;125031;1099;103111;-80
2023/02/07 00:55:39;;;;;;;16.07;6.67;;;;;;;-2.22;64.27;102190.70;125051;1099;101609;-79
2023/02/07 00:58:12;;;;;;;17.97;6.50;;;;;;;-2.23;64.82;102187.95;125104;1099;101812;-79
2023/02/07 01:00:44;;;;;;;18.23;7.23;;;;;;;-2.23;64.32;102186.32;125048;1099;104024;-81
2023/02/07 01:03:17;;;;;;;17.47;7.13;;;;;;;-2.24;64.57;102181.00;125057;1098;103948;-78
2023/02/07 01:05:49;;;;;;;14.70;6.60;;;;;;;-2.25;63.97;102182.64;125166;1099;104050;-79
2023/02/07 01:08:22;;;;;;;16.03;7.03;;;;;;;-2.27;64.42;102178.98;125092;1099;104028;-79
2023/02/07 01:10:54;;;;;;;14.67;6.67;;;;;;;-2.27;64.62;102183.22;125024;1099;103974;-80
2023/02/07 01:13:26;;;;;;;17.43;7.37;;;;;;;-2.29;64.58;102190.77;125071;1098;101662;-79
2023/02/07 01:15:58;;;;;;;18.00;7.40;;;;;;;-2.30;64.15;102176.06;125193;1098;101679;-79
2023/02/07 01:18:31;;;;;;;17.13;6.83;;;;;;;-2.32;64.24;102182.70;125045;1099;101755;-79
2023/02/07 01:21:13;;;;;;;15.93;6.60;;;;;;;-2.32;63.80;102189.48;125156;1099;103948;-78
2023/02/07 01:23:45;;;;;;;16.77;7.47;;;;;;;-2.35;63.99;102190.97;125145;1098;101775;-79
2023/02/07 01:26:18;;;;;;;15.93;6.77;;;;;;;-2.35;63.51;102185.83;125045;1099;104021;-79
2023/02/07 01:28:51;;;;;;;15.13;6.43;;;;;;;-2.35;63.93;102190.06;125105;1099;101637;-79
2023/02/07 01:31:24;;;;;;;16.82;7.03;;;;;;;-2.37;63.93;102188.95;124910;1099;102229;-80
2023/02/07 01:33:59;;;;;;;18.70;8.00;;;;;;;-2.39;63.53;102182.73;125129;1099;101767;-80
2023/02/07 01:36:32;;;;;;;16.87;7.03;;;;;;;-2.39;64.87;102185.30;125140;1099;101888;-77
2023/02/07 01:39:06;;;;;;;18.57;6.93;;;;;;;-2.42;64.48;102188.42;125110;1099;104009;-79
2023/02/07 01:41:39;;;;;;;16.63;6.77;;;;;;;-2.44;64.22;102189.91;125176;1099;102051;-80
2023/02/07 01:44:58;;;;;;;15.20;6.57;;;;;;;-2.48;63.37;102182.58;125153;1099;101679;-79
2023/02/07 01:47:32;;;;;;;15.80;6.80;;;;;;;-2.48;63.59;102194.53;124827;1099;101909;-78
2023/02/07 01:50:06;;;;;;;14.23;5.60;;;;;;;-2.49;63.56;102185.91;124941;1099;104069;-79
2023/02/07 01:52:41;;;;;;;17.35;6.87;;;;;;;-2.49;64.37;102188.48;125035;1099;102366;-78
2023/02/07 01:55:16;;;;;;;16.80;6.65;;;;;;;-2.50;63.50;102188.31;125149;1099;103919;-79
2023/02/07 01:57:49;;;;;;;17.07;6.77;;;;;;;-2.50;64.55;102181.50;124552;1099;103961;-79
2023/02/07 02:00:22;;;;;;;17.03;7.20;;;;;;;-2.52;63.27;102175.28;124484;1099;102076;-79
2023/02/07 02:02:56;;;;;;;17.75;7.15;;;;;;;-2.51;64.05;102181.32;125004;1099;104065;-79
2023/02/07 02:05:30;;;;;;;16.93;6.90;;;;;;;-2.50;63.70;102180.59;125051;1099;104037;-79
2023/02/07 02:08:02;;;;;;;16.30;6.40;;;;;;;-2.51;63.37;102177.08;125179;1099;103958;-78
2023/02/07 02:10:56;;;;;;;16.80;6.87;;;;;;;-2.53;63.51;102179.48;125179;1099;102175;-79
2023/02/07 02:13:37;;;;;;;16.90;6.83;;;;;;;-2.57;64.21;102181.52;125113;1098;103955;-81
2023/02/07 02:16:21;;;;;;;18.27;7.10;;;;;;;-2.57;63.71;102176.38;125131;1099;103986;-78
2023/02/07 02:19:17;;;;;;;18.67;6.97;;;;;;;-2.66;63.52;102165.08;125063;1099;103964;-80
2023/02/07 02:22:17;;;;;;;16.17;6.80;;;;;;;-2.57;64.16;102184.09;125022;1099;103939;-78
2023/02/07 02:25:26;;;;;;;17.63;7.23;;;;;;;-2.59;63.32;102172.73;125092;1099;104060;-80
2023/02/07 02:28:18;;;;;;;14.77;6.10;;;;;;;-2.62;63.97;102174.95;125174;1099;104054;-79
2023/02/07 02:31:30;;;;;;;17.30;6.87;;;;;;;-2.65;63.90;102170.39;124939;1098;102596;-79
2023/02/07 02:34:07;;;;;;;16.03;6.67;;;;;;;-2.66;64.36;102168.55;124606;1099;101898;-79
2023/02/07 02:36:52;;;;;;;16.90;6.73;;;;;;;-2.66;63.81;102171.12;125007;1099;103948;-79
2023/02/07 02:39:27;;;;;;;;;;;;;;;-2.65;64.43;102164.31;124961;1099;103993;-80
2023/02/07 02:42:08;;;;;;;16.60;6.70;;;;;;;-2.65;63.51;102179.73;124915;1099;104063;-79
2023/02/07 02:44:47;;;;;;;18.77;7.27;;;;;;;-2.67;63.83;102169.28;125098;1099;104099;-80
2023/02/07 02:47:20;;;;;;;17.77;6.80;;;;;;;-2.66;63.49;102165.08;125105;1099;103970;-80
2023/02/07 02:49:54;;;;;;;20.72;7.28;;;;;;;-2.67;64.41;102165.80;125140;1099;103457;-80
2023/02/07 02:52:28;;;;;;;20.10;7.53;;;;;;;-2.70;64.03;102158.64;125146;1099;104021;-81
2023/02/07 02:55:00;;;;;;;19.10;7.43;;;;;;;-2.73;64.12;102156.66;125259;1099;101992;-80
2023/02/07 02:57:51;;;;;;;18.43;6.90;;;;;;;-2.75;64.40;102159.78;125121;1099;104051;-81
2023/02/07 03:00:38;;;;;;;16.77;7.47;;;;;;;-2.76;63.32;102160.51;125090;1098;101763;-80
2023/02/07 03:03:27;;;;;;;17.93;7.07;;;;;;;-2.76;64.43;102157.94;125052;1099;101823;-79
2023/02/07 03:06:10;;;;;;;19.27;7.67;;;;;;;-2.76;64.05;102157.94;125165;1099;101685;-80
2023/02/07 03:08:49;;;;;;;19.10;8.07;;;;;;;-2.78;63.73;102165.47;124807;1099;104462;-81
2023/02/07 03:11:24;;;;;;;18.23;7.37;;;;;;;-2.79;64.28;102162.72;124947;1099;103936;-80
2023/02/07 03:14:05;;;;;;;20.60;8.17;;;;;;;-2.80;63.80;102159.25;125116;1098;106561;-79
2023/02/07 03:16:46;;;;;;;18.60;8.20;;;;;;;-2.79;63.94;102162.72;124710;1099;104105;-79
2023/02/07 03:19:23;;;;;;;20.80;8.57;;;;;;;-2.79;64.42;102160.16;125215;1099;104133;-76
2023/02/07 03:21:59;;;;;;;20.97;8.00;;;;;;;-2.81;64.60;102161.64;125303;1099;101945;-81
2023/02/07 03:24:34;;;;;;;18.57;7.60;;;;;;;-2.82;64.11;102162.37;125241;1099;104031;-82
2023/02/07 03:27:14;;;;;;;19.87;8.03;;;;;;;-2.83;64.40;102164.03;125263;1099;101712;-79
2023/02/07 03:29:50;;;;;;;19.43;8.00;;;;;;;-2.84;63.35;102163.86;125215;1098;103997;-80
2023/02/07 03:32:26;;;;;;;20.83;8.50;;;;;;;-2.87;63.58;102155.80;125190;1099;103949;-76
2023/02/07 03:35:10;;;;;;;20.27;8.23;;;;;;;-2.89;63.81;102161.66;125105;1099;103954;-79
2023/02/07 03:37:46;;;;;;;20.10;7.83;;;;;;;-2.89;64.07;102148.81;125290;1099;103951;-79
2023/02/07 03:40:19;;;;;;;17.77;7.80;;;;;;;-2.90;64.12;102157.28;125011;1099;104066;-77
2023/02/07 03:42:54;;;;;;;19.77;7.77;;;;;;;-2.89;63.88;102148.81;125047;1099;103939;-81
2023/02/07 03:45:26;;;;;;;18.57;7.73;;;;;;;-2.91;63.58;102151.97;125025;1099;102046;-80
2023/02/07 03:47:58;;;;;;;17.90;7.63;;;;;;;-2.93;64.23;102141.51;125019;1099;102155;-79
2023/02/07 03:50:32;;;;;;;19.40;8.17;;;;;;;-2.94;63.37;102147.38;125013;1099;104158;-79
2023/02/07 03:53:04;;;;;;;18.13;7.30;;;;;;;-2.98;63.73;102147.74;125057;1099;103939;-79
2023/02/07 03:55:36;;;;;;;17.30;7.67;;;;;;;-3.01;63.37;102156.76;124947;1099;104016;-80
2023/02/07 03:58:08;;;;;;;18.70;7.67;;;;;;;-3.07;63.63;102164.66;124995;1098;102261;-79
2023/02/07 04:00:40;;;;;;;16.43;7.50;;;;;;;-3.13;63.59;102152.03;124867;1099;101858;-78
2023/02/07 04:03:13;;;;;;;17.87;7.57;;;;;;;-3.17;63.85;102161.77;125164;1099;103964;-79
2023/02/07 04:05:48;;;;;;;20.57;8.10;;;;;;;-3.22;63.93;102162.89;125042;1099;103974;-79
2023/02/07 04:08:23;;;;;;;16.13;7.10;;;;;;;-3.25;63.82;102159.20;124996;1099;103884;-78
2023/02/07 04:11:04;;;;;;;19.67;7.47;;;;;;;-3.26;64.29;102164.16;125035;1099;102086;-80
2023/02/07 04:13:40;;;;;;;20.80;8.40;;;;;;;-3.28;63.49;102163.98;124926;1099;102878;-79
2023/02/07 04:16:14;;;;;;;20.63;8.37;;;;;;;-3.29;63.49;102164.73;125142;1098;102218;-77
2023/02/07 04:18:46;;;;;;;17.10;7.35;;;;;;;-3.30;64.05;102161.99;124985;1099;103941;-79
2023/02/07 04:21:19;;;;;;;16.27;7.30;;;;;;;-3.27;63.70;102167.48;124979;1099;104056;-78
2023/02/07 04:23:51;;;;;;;17.10;7.43;;;;;;;-3.29;64.25;102167.31;124941;1098;101634;-79
2023/02/07 04:26:23;;;;;;;18.70;7.80;;;;;;;-3.29;63.82;102166.37;124925;1098;103974;-79
2023/02/07 04:28:56;;;;;;;18.57;7.73;;;;;;;-3.27;63.84;102168.39;125041;1099;101809;-78
2023/02/07 04:31:28;;;;;;;18.70;7.37;;;;;;;-3.25;63.38;102169.48;125036;1099;104088;-78
2023/02/07 04:34:01;;;;;;;18.00;7.50;;;;;;;-3.24;63.94;102165.28;125235;1099;103963;-79
2023/02/07 04:36:33;;;;;;;17.47;6.87;;;;;;;-3.22;63.46;102157.76;124946;1099;103996;-79
2023/02/07 04:39:06;;;;;;;19.20;7.77;;;;;;;-3.22;63.92;102161.23;124824;1099;104427;-79
2023/02/07 04:41:38;;;;;;;17.33;7.60;;;;;;;-3.19;64.19;102156.45;124974;1099;102254;-79
2023/02/07 04:44:12;;;;;;;18.53;7.70;;;;;;;-3.18;63.74;102154.79;124881;1099;104044;-79
2023/02/07 04:46:48;;;;;;;20.33;8.77;;;;;;;-3.17;63.99;102152.41;125121;1099;103980;-80
2023/02/07 04:49:25;;;;;;;17.40;7.33;;;;;;;-3.17;63.71;102159.20;125117;1099;101585;-78
2023/02/07 04:51:57;;;;;;;19.93;8.80;;;;;;;-3.17;63.39;102161.77;124897;1099;103952;-77
2023/02/07 04:54:30;;;;;;;18.50;7.70;;;;;;;-3.17;63.38;102164.34;125016;1098;104459;-77
2023/02/07 04:57:02;;;;;;;19.73;8.07;;;;;;;-3.19;63.95;102159.02;124877;1099;104098;-77
2023/02/07 04:59:34;;;;;;;20.00;7.60;;;;;;;-3.18;63.75;102159.92;124847;1099;103986;-78
2023/02/07 05:02:07;;;;;;;23.37;8.97;;;;;;;-3.15;64.10;102157.72;125115;1099;101603;-79
2023/02/07 05:04:39;;;;;;;18.17;7.57;;;;;;;-3.12;63.81;102165.78;124949;1099;104037;-79
2023/02/07 05:07:11;;;;;;;18.47;7.23;;;;;;;-3.10;63.51;102165.23;124945;1099;104133;-79
2023/02/07 05:09:43;;;;;;;21.20;8.20;;;;;;;-3.10;63.71;102164.30;124790;1099;104000;-78
2023/02/07 05:12:15;;;;;;;20.23;7.87;;;;;;;-3.10;64.01;102167.80;125035;1099;103996;-77
2023/02/07 05:14:48;;;;;;;18.53;7.57;;;;;;;-3.08;63.99;102166.31;124938;1099;101757;-79
2023/02/07 05:17:20;;;;;;;19.20;7.73;;;;;;;-3.06;64.11;102161.36;124974;1099;104025;-79
2023/02/07 05:19:52;;;;;;;21.33;7.77;;;;;;;-3.06;64.68;102163.92;124861;1098;104130;-78
2023/02/07 05:22:24;;;;;;;17.37;7.23;;;;;;;-3.07;64.47;102165.59;124826;1099;103980;-78
2023/02/07 05:24:57;;;;;;;18.93;7.90;;;;;;;-3.05;63.65;102169.97;124788;1099;103955;-77
2023/02/07 05:27:29;;;;;;;20.03;7.87;;;;;;;-3.04;64.32;102169.24;124925;1099;101984;-79
2023/02/07 05:30:02;;;;;;;18.53;7.60;;;;;;;-3.02;64.18;102163.56;125146;1099;101603;-78
2023/02/07 05:35:25;;;;;;;20.63;8.33;;;;;;;-2.99;64.99;102162.98;125148;1099;104003;-77
2023/02/07 05:37:57;;;;;;;21.70;8.27;;;;;;;-2.95;63.85;102165.18;125335;1099;104009;-80
2023/02/07 05:40:30;;;;;;;21.93;7.83;;;;;;;-2.92;64.02;102168.10;125357;1099;103954;-77
2023/02/07 05:43:02;;;;;;;23.20;8.07;;;;;;;-2.90;64.10;102170.13;125316;1099;103977;-78
2023/02/07 05:45:34;;;;;;;22.10;8.57;;;;;;;-2.90;64.26;102166.62;125325;1099;101809;-77
2023/02/07 05:48:07;;;;;;;23.37;8.17;;;;;;;-2.85;64.06;102167.15;125413;1099;101574;-77
2023/02/07 05:50:40;;;;;;;20.23;8.57;;;;;;;-2.86;64.57;102165.34;125336;1099;101622;-78
2023/02/07 05:53:12;;;;;;;20.17;7.67;;;;;;;-2.86;64.34;102173.95;125277;1099;102702;-75
2023/02/07 05:55:46;;;;;;;23.02;8.88;;;;;;;-2.86;64.00;102165.34;125299;1099;103954;-77
2023/02/07 05:58:18;;;;;;;21.97;8.73;;;;;;;-2.85;65.10;102177.42;125266;1099;104006;-77
2023/02/07 06:00:50;;;;;;;21.97;8.77;;;;;;;-2.81;65.51;102169.34;125330;1099;101729;-79
2023/02/07 06:03:22;;;;;;;19.97;8.23;;;;;;;-2.80;64.44;102176.33;125271;1099;103964;-76
2023/02/07 06:05:55;;;;;;;25.10;8.97;;;;;;;-2.77;64.84;102174.12;125356;1099;103960;-80
2023/02/07 06:08:27;;;;;;;22.87;7.77;;;;;;;-2.77;65.39;102175.02;125628;1099;101951;-77
2023/02/07 06:11:01;;;;;;;21.90;9.03;;;;;;;-2.75;64.97;102180.34;125530;1099;103958;-77
2023/02/07 06:13:34;;;;;;;23.50;9.43;;;;;;;-2.78;65.04;102177.41;125094;1099;101910;-78
2023/02/07 06:16:08;;;;;;;23.80;9.30;;;;;;;-2.78;65.10;102169.70;125392;1099;102431;-77
2023/02/07 06:18:41;;;;;;;23.13;9.07;;;;;;;-2.81;65.39;102167.69;125190;1098;101666;-76
2023/02/07 06:21:14;;;;;;;23.30;10.13;;;;;;;-2.80;64.52;102166.05;125134;1099;104024;-77
2023/02/07 06:23:48;;;;;;;23.20;9.63;;;;;;;-2.75;65.28;102168.39;125343;1099;101932;-76
2023/02/07 06:26:20;;;;;;;28.17;10.98;;;;;;;-2.73;65.62;102169.51;125413;1099;102393;-77
2023/02/07 06:28:52;;;;;;;26.00;10.70;;;;;;;-2.66;66.07;102167.64;125557;1099;104099;-76
2023/02/07 06:31:26;;;;;;;27.00;10.73;;;;;;;-2.67;65.93;102159.00;125536;1099;103964;-77
2023/02/07 06:33:58;;;;;;;25.52;10.13;;;;;;;-2.67;65.62;102174.42;125345;1099;103302;-75
2023/02/07 06:36:31;;;;;;;26.47;11.47;;;;;;;-2.68;66.13;102163.96;125586;1099;103945;-81
2023/02/07 06:39:03;;;;;;;28.20;12.70;;;;;;;-2.66;66.06;102171.12;125691;1099;102158;-79
2023/02/07 06:41:38;;;;;;;29.27;11.53;;;;;;;-2.65;65.82;102174.59;125615;1099;103932;-78
2023/02/07 06:44:11;;;;;;;28.90;11.95;;;;;;;-2.63;66.68;102170.57;125548;1099;104130;-77
2023/02/07 06:46:44;;;;;;;26.37;11.63;;;;;;;-2.65;65.79;102170.39;125595;1099;103983;-79
2023/02/07 06:49:16;;;;;;;;;;;;;;;-2.61;67.56;102175.13;125396;1098;102218;-77
2023/02/07 06:51:48;;;;;;;30.50;12.50;;;;;;;-2.55;67.04;102172.36;125378;1099;102891;-78
2023/02/07 06:54:22;;;;;;;30.33;11.97;;;;;;;-2.52;67.45;102172.70;125513;1099;102558;-77
2023/02/07 06:56:55;;;;;;;28.47;12.63;;;;;;;-2.50;67.16;102171.22;125638;1099;103973;-77
2023/02/07 06:59:28;;;;;;;30.10;13.23;;;;;;;-2.51;66.32;102168.47;125573;1099;102194;-77
2023/02/07 07:02:02;;;;;;;29.53;12.33;;;;;;;-2.50;66.97;102163.50;125603;1099;102729;-78
2023/02/07 07:04:35;;;;;;;31.93;13.55;;;;;;;-2.51;66.50;102160.76;125617;1099;102704;-77
2023/02/07 07:07:09;;;;;;;28.57;12.57;;;;;;;-2.50;67.75;102165.17;125663;1099;103160;-78
2023/02/07 07:09:44;;;;;;;32.73;14.03;;;;;;;-2.49;67.89;102164.41;125690;1098;103945;-80
2023/02/07 07:12:19;;;;;;;35.17;14.57;;;;;;;-2.46;67.05;102164.76;125884;1102;102667;-77
2023/02/07 07:14:52;;;;;;;33.48;14.05;;;;;;;-2.43;67.68;102166.05;125581;1099;102639;-79
2023/02/07 07:17:24;;;;;;;32.50;12.67;;;;;;;-2.31;67.09;102163.03;125546;1099;103970;-76
2023/02/07 07:19:57;;;;;;;27.27;12.43;;;;;;;-2.23;67.34;102167.38;125474;1099;103968;-78
2023/02/07 07:22:30;;;;;;;36.25;15.38;;;;;;;-2.22;67.72;102164.98;125422;1098;103970;-77
2023/02/07 07:25:05;;;;;;;29.70;13.37;;;;;;;-2.23;67.54;102165.75;125519;1099;102518;-76
2023/02/07 07:27:37;;;;;;;31.67;13.93;;;;;;;-2.23;67.47;102159.66;125251;1099;104025;-79
2023/02/07 07:30:14;;;;;;;30.70;14.37;;;;;;;-2.23;67.87;102168.32;125456;1099;102113;-77
2023/02/07 07:32:47;;;;;;;36.33;14.17;;;;;;;-2.20;67.51;102166.09;125408;1099;103110;-77
2023/02/07 07:35:20;;;;;;;32.83;13.33;;;;;;;-2.12;68.37;102164.39;125345;1099;104032;-75
2023/02/07 07:37:52;;;;;;;29.30;13.43;;;;;;;-2.05;67.28;102168.56;125387;1099;103974;-76
2023/02/07 07:40:25;;;;;;;32.17;13.40;;;;;;;-2.01;67.27;102170.71;125464;1099;102554;-76
2023/02/07 07:42:57;;;;;;;31.10;13.80;;;;;;;-1.99;67.86;102166.68;125479;1099;102639;-77
2023/02/07 07:45:44;;;;;;;27.60;12.60;;;;;;;-1.95;67.54;102166.26;125426;1099;102581;-76
2023/02/07 07:48:16;;;;;;;34.83;13.93;;;;;;;-1.93;67.47;102171.58;125467;1099;102165;-76
2023/02/07 07:50:55;;;;;;;27.07;12.53;;;;;;;-1.91;67.59;102164.97;125505;1099;102780;-76
2023/02/07 07:53:28;;;;;;;29.13;12.80;;;;;;;-1.94;67.95;102162.05;125526;1099;103459;-76
2023/02/07 07:56:01;;;;;;;31.73;12.70;;;;;;;-1.91;67.48;102160.72;125483;1099;102427;-76
2023/02/07 07:58:34;;;;;;;30.02;13.22;;;;;;;-1.86;67.24;102164.72;125484;1099;104043;-76
2023/02/07 08:01:11;;;;;;;28.57;12.77;;;;;;;-1.85;67.98;102169.13;125531;1099;102396;-76
2023/02/07 08:03:46;;;;;;;28.27;13.17;;;;;;;-1.84;67.81;102152.02;125582;1099;102058;-76
2023/02/07 08:06:21;;;;;;;27.97;12.27;;;;;;;-1.82;67.56;102156.61;125686;1099;102568;-76
2023/02/07 08:08:55;;;;;;;29.80;12.57;;;;;;;-1.83;68.12;102159.91;125552;1099;104050;-77
2023/02/07 08:11:32;;;;;;;31.10;13.50;;;;;;;-1.79;67.29;102149.96;125566;1099;104033;-75
2023/02/07 08:14:10;;;;;;;29.87;13.30;;;;;;;-1.72;67.78;102149.91;125707;1099;102268;-76
2023/02/07 08:16:43;;;;;;;30.37;12.97;;;;;;;-1.67;67.68;102148.75;125701;1099;103970;-77
2023/02/07 08:19:15;;;;;;;35.17;13.27;;;;;;;-1.65;67.91;102134.41;125620;1098;102570;-76
2023/02/07 08:21:49;;;;;;;33.23;14.50;;;;;;;-1.57;67.59;102142.95;125652;1099;104001;-76
2023/02/07 08:24:23;;;;;;;30.50;12.77;;;;;;;-1.50;67.88;102132.59;125564;1099;104000;-76
2023/02/07 08:26:58;;;;;;;29.95;13.25;;;;;;;-1.50;68.00;102154.09;125604;1099;101854;-76
2023/02/07 08:29:32;;;;;;;28.75;12.45;;;;;;;-1.52;67.94;102140.16;125624;1099;102113;-75
2023/02/07 08:32:08;;;;;;;28.60;12.77;;;;;;;-1.53;67.74;102139.98;125726;1099;104195;-75
2023/02/07 08:34:41;;;;;;;32.47;13.40;;;;;;;-1.53;68.25;102128.02;125587;1099;101891;-78
2023/02/07 08:37:16;;;;;;;32.37;13.87;;;;;;;-1.53;68.75;102142.56;125717;1099;103852;-76
2023/02/07 08:39:51;;;;;;;29.83;12.50;;;;;;;-1.57;68.57;102130.08;125612;1098;103115;-76
2023/02/07 08:42:24;;;;;;;30.40;12.40;;;;;;;-1.70;68.60;102117.53;125403;1098;102011;-76
2023/02/07 08:44:58;;;;;;;28.65;12.60;;;;;;;-1.63;68.14;102140.64;125495;1099;102458;-76
2023/02/07 08:47:31;;;;;;;31.17;15.20;;;;;;;-1.68;68.61;102141.80;125384;1099;104123;-75
2023/02/07 08:50:05;;;;;;;31.97;13.57;;;;;;;-1.68;68.44;102136.66;125010;1099;103112;-76
2023/02/07 08:52:39;;;;;;;32.47;15.40;;;;;;;-1.69;68.51;102143.44;125033;1099;104031;-76
2023/02/07 08:55:12;;;;;;;34.03;14.63;;;;;;;-1.70;69.36;102141.63;125424;1099;103938;-76
2023/02/07 08:57:50;;;;;;;34.63;14.70;;;;;;;-1.69;68.85;102127.09;125386;1099;103877;-75
2023/02/07 09:00:24;;;;;;;29.80;13.43;;;;;;;-1.66;69.86;102128.33;125118;1099;102340;-76
2023/02/07 09:02:57;;;;;;;29.93;13.30;;;;;;;-1.60;70.17;102130.68;125519;1099;103183;-77
2023/02/07 09:05:32;;;;;;;27.63;12.30;;;;;;;-1.58;69.85;102136.91;125538;1099;104051;-76
2023/02/07 09:08:11;;;;;;;31.47;13.03;;;;;;;-1.60;69.61;102122.95;125654;1099;102754;-76
2023/02/07 09:10:47;;;;;;;28.37;12.10;;;;;;;-1.61;70.08;102133.08;125360;1099;103789;-76
2023/02/07 09:13:24;;;;;;;28.03;13.17;;;;;;;-1.60;69.18;102125.53;125540;1099;102718;-75
2023/02/07 09:16:05;;;;;;;27.73;13.33;;;;;;;-1.60;69.87;102112.66;125494;1099;103256;-77
2023/02/07 09:18:47;;;;;;;28.27;12.70;;;;;;;-1.42;70.31;102123.14;125624;1099;102519;-76
2023/02/07 09:21:32;;;;;;;28.53;12.23;;;;;;;-1.33;69.40;102126.72;125577;1099;102802;-76
2023/02/07 09:24:08;;;;;;;28.07;12.87;;;;;;;-1.27;69.69;102120.57;125625;1099;103096;-76
2023/02/07 09:26:43;;;;;;;28.97;12.37;;;;;;;-1.20;69.58;102113.51;125545;1099;103782;-76
2023/02/07 09:29:16;;;;;;;30.43;14.23;;;;;;;-1.16;69.64;102120.83;125469;1099;103078;-76
2023/02/07 09:31:50;;;;;;;30.37;13.17;;;;;;;-1.14;70.30;102109.02;125437;1099;103942;-76
2023/02/07 09:34:23;;;;;;;27.33;12.60;;;;;;;-1.07;70.20;102108.95;125661;1099;103329;-77
2023/02/07 09:36:58;;;;;;;26.57;12.40;;;;;;;-1.03;70.34;102103.36;125643;1099;103504;-76
2023/02/07 09:39:32;;;;;;;31.67;13.37;;;;;;;-0.95;70.27;102102.55;125631;1099;102125;-79
2023/02/07 09:42:15;;;;;;;21.87;10.90;;;;;;;-0.84;69.44;102093.38;125216;1099;102613;-76
2023/02/07 09:44:57;;;;;;;28.87;13.13;;;;;;;-0.69;70.66;102100.91;125761;1098;102762;-77
2023/02/07 09:47:32;;;;;;;28.97;13.70;;;;;;;-0.64;70.05;102091.99;125584;1099;102577;-76
2023/02/07 09:50:15;;;;;;;27.40;13.33;;;;;;;-0.62;70.98;102093.99;125435;1098;102512;-77
2023/02/07 09:52:52;;;;;;;24.97;10.97;;;;;;;-0.59;70.01;102093.41;125800;1099;103071;-79
2023/02/07 09:55:28;;;;;;;26.33;12.27;;;;;;;-0.63;70.34;102089.57;125301;1099;103898;-79
2023/02/07 09:58:07;;;;;;;27.87;12.37;;;;;;;-0.65;70.64;102085.03;125628;1099;102963;-76
2023/02/07 10:00:43;;;;;;;26.40;11.93;;;;;;;-0.67;70.22;102076.20;125757;1099;102007;-77
2023/02/07 10:03:23;;;;;;;27.00;12.00;;;;;;;-0.64;70.79;102085.19;125953;1099;103951;-77
2023/02/07 10:05:59;;;;;;;27.23;12.07;;;;;;;-0.57;70.38;102089.32;125913;1099;102082;-77
2023/02/07 10:08:36;;;;;;;26.27;11.80;;;;;;;-0.49;70.66;102085.88;125921;1098;104009;-75
2023/02/07 10:11:20;;;;;;;28.93;12.07;;;;;;;-0.44;71.67;102082.10;125326;1099;104076;-75
2023/02/07 10:14:19;;;;;;;24.63;10.80;;;;;;;-0.34;70.36;102089.16;125695;1099;101670;-76
2023/02/07 10:17:05;;;;;;;29.60;12.20;;;;;;;-0.29;70.75;102087.06;125475;1098;103990;-76
2023/02/07 10:19:49;;;;;;;28.23;12.70;;;;;;;-0.27;70.76;102086.45;125469;1099;101969;-77
2023/02/07 10:22:33;;;;;;;27.13;12.63;;;;;;;-0.26;71.26;102084.81;125668;1099;104051;-75
2023/02/07 10:25:24;;;;;;;27.43;12.50;;;;;;;-0.27;71.08;102088.13;125834;1099;102431;-75
2023/02/07 10:28:13;;;;;;;29.23;11.57;;;;;;;-0.30;71.13;102090.39;125558;1098;103964;-75
2023/02/07 10:30:51;;;;;;;25.60;11.77;;;;;;;-0.34;71.70;102077.91;125547;1099;103209;-76
2023/02/07 10:33:31;;;;;;;26.23;11.93;;;;;;;-0.35;71.22;102079.59;125550;1099;102327;-75
2023/02/07 10:36:13;;;;;;;26.87;11.83;;;;;;;-0.33;71.73;102077.17;125478;1098;102515;-75
2023/02/07 10:39:04;;;;;;;25.70;12.47;;;;;;;-0.36;70.98;102070.02;125526;1099;103205;-75
2023/02/07 10:41:58;;;;;;;25.17;12.00;;;;;;;-0.35;71.42;102070.95;125404;1099;103977;-75
2023/02/07 10:44:32;;;;;;;26.23;12.03;;;;;;;-0.34;71.52;102071.11;125543;1099;102705;-75
2023/02/07 10:47:13;;;;;;;28.03;12.10;;;;;;;-0.30;71.58;102074.91;125561;1098;102430;-76
2023/02/07 10:49:48;;;;;;;28.20;11.87;;;;;;;-0.32;71.76;102077.33;125523;1099;102678;-76
2023/02/07 10:52:29;;;;;;;29.97;13.53;;;;;;;-0.36;71.35;102075.17;125722;1098;102428;-77
2023/02/07 10:55:06;;;;;;;30.47;14.30;;;;;;;-0.38;71.34;102077.59;125522;1099;102071;-76
2023/02/07 10:57:40;;;;;;;32.83;15.10;;;;;;;-0.40;71.61;102067.89;125891;1099;102928;-77
2023/02/07 11:00:23;;;;;;;32.17;15.70;;;;;;;-0.41;71.28;102072.11;126153;1099;102782;-75
2023/02/07 11:03:12;;;;;;;31.13;15.27;;;;;;;-0.44;71.29;102063.15;125906;1099;102976;-76
2023/02/07 11:06:01;;;;;;;28.90;14.13;;;;;;;-0.44;71.96;102063.15;125873;1099;103218;-75
2023/02/07 11:08:44;;;;;;;30.90;12.60;;;;;;;-0.42;71.34;102054.83;126653;1099;102350;-78
2023/02/07 11:11:38;;;;;;;27.07;12.47;;;;;;;-0.31;72.38;102052.44;126428;1099;102749;-77
2023/02/07 11:14:25;;;;;;;24.97;11.83;;;;;;;-0.27;72.10;102041.70;126450;1099;101999;-76
2023/02/07 11:17:00;;;;;;;24.43;11.70;;;;;;;-0.30;71.64;102042.27;126538;1098;102689;-77
2023/02/07 11:19:35;;;;;;;26.87;12.47;;;;;;;-0.30;72.12;102050.02;126504;1099;102330;-77
2023/02/07 11:22:23;;;;;;;29.47;12.33;;;;;;;-0.28;72.22;102040.80;126544;1099;102416;-77
2023/02/07 11:25:05;;;;;;;25.27;10.87;;;;;;;-0.22;71.99;102030.17;126582;1098;101944;-77
2023/02/07 11:27:44;;;;;;;24.47;11.00;;;;;;;-0.20;72.06;102033.84;126474;1099;101789;-76
2023/02/07 11:30:22;;;;;;;25.23;10.97;;;;;;;-0.20;72.54;102045.07;126712;1098;101427;-76
2023/02/07 11:33:05;;;;;;;25.43;11.87;;;;;;;-0.16;73.11;102038.55;126604;1099;101902;-77
2023/02/07 11:36:00;;;;;;;25.17;11.93;;;;;;;-0.10;72.50;102039.18;126518;1099;101562;-76
2023/02/07 11:38:39;;;;;;;24.70;11.43;;;;;;;-0.12;73.36;102035.54;126562;1099;102696;-77
2023/02/07 11:41:27;;;;;;;27.37;12.63;;;;;;;-0.09;73.26;102028.11;126515;1098;102944;-76
2023/02/07 11:44:18;;;;;;;26.33;11.40;;;;;;;-0.05;72.72;102027.69;126562;1099;101242;-77